Time;durP1;ratioP1;P1;durP2;ratioP2;P2;SDS_P1;SDS_P2;PMS_P1;PMS_P2;Temp;Humidity;BMP_temperature;BMP_pressure;BME280_temperature;BME280_humidity;BME280_pressure;Samples;Min_cycle;Max_cycle;Signal;HPM_P1;HPM_P2
2023/07/21 00:02:23;;;;;;;4.22;2.25;;;;;;;15.57;79.78;101310.28;6188462;23;20018;-79
2023/07/21 00:04:49;;;;;;;2.50;2.30;;;;;;;15.55;79.89;101307.31;6189368;23;20403;-78
2023/07/21 00:07:16;;;;;;;2.28;2.13;;;;;;;15.51;79.76;101312.84;6162223;23;20017;-79
2023/07/21 00:09:44;;;;;;;2.40;2.30;;;;;;;15.48;80.06;101308.41;6189008;23;20441;-78
2023/07/21 00:12:11;;;;;;;2.30;2.20;;;;;;;15.46;80.21;101302.75;6161970;23;20459;-78
2023/07/21 00:14:38;;;;;;;2.95;2.72;;;;;;;15.40;80.67;101306.53;6162155;23;20439;-78
2023/07/21 00:17:05;;;;;;;2.50;2.30;;;;;;;15.39;80.86;101305.03;6188076;23;20013;-78
2023/07/21 00:19:32;;;;;;;4.95;2.60;;;;;;;15.38;80.85;101311.59;6162545;23;20053;-79
2023/07/21 00:21:58;;;;;;;2.55;2.28;;;;;;;15.37;79.98;101310.13;6188787;23;20022;-78
2023/07/21 00:24:25;;;;;;;4.32;2.15;;;;;;;15.38;81.15;101306.97;6188363;23;20076;-78
2023/07/21 00:26:53;;;;;;;2.92;2.58;;;;;;;15.35;81.01;101300.59;6189092;23;20026;-78
2023/07/21 00:29:20;;;;;;;2.05;1.95;;;;;;;15.36;81.17;101306.69;6156638;23;20026;-78
2023/07/21 00:31:49;;;;;;;2.47;2.28;;;;;;;15.32;81.44;101306.88;6158567;23;20025;-78
2023/07/21 00:34:16;;;;;;;2.53;2.30;;;;;;;15.30;81.45;101303.91;6156881;23;20018;-78
2023/07/21 00:36:45;;;;;;;4.32;2.28;;;;;;;15.29;81.55;101307.03;6158382;23;20054;-78
2023/07/21 00:39:13;;;;;;;7.80;2.30;;;;;;;15.22;82.05;101304.69;6156500;23;20018;-78
2023/07/21 00:41:40;;;;;;;2.40;2.20;;;;;;;15.17;82.54;101305.34;6132414;23;20464;-79
2023/07/21 00:44:09;;;;;;;2.17;2.08;;;;;;;15.17;82.29;101300.00;6156688;23;20018;-79
2023/07/21 00:46:36;;;;;;;2.45;2.25;;;;;;;15.16;82.13;101293.88;6156517;23;20081;-78
2023/07/21 00:49:05;;;;;;;2.40;2.30;;;;;;;15.12;82.22;101296.00;6158418;23;20073;-79
2023/07/21 00:51:32;;;;;;;2.33;2.22;;;;;;;15.11;81.94;101294.50;6158585;23;20033;-78
2023/07/21 00:54:00;;;;;;;2.45;2.35;;;;;;;15.11;82.40;101291.09;6158360;23;20021;-78
2023/07/21 00:56:27;;;;;;;2.47;2.30;;;;;;;15.11;82.25;101285.72;6158947;23;20099;-78
2023/07/21 00:58:54;;;;;;;4.10;2.28;;;;;;;15.10;81.90;101284.97;6158567;23;20018;-78
2023/07/21 01:01:22;;;;;;;2.30;2.20;;;;;;;15.08;81.68;101281.28;6158650;23;20029;-78
2023/07/21 01:03:50;;;;;;;2.47;2.30;;;;;;;15.00;83.34;101284.28;6158828;23;20348;-78
2023/07/21 01:06:17;;;;;;;2.40;2.30;;;;;;;14.97;83.43;101282.53;6156753;23;20098;-78
2023/07/21 01:08:45;;;;;;;2.30;2.20;;;;;;;14.97;83.85;101281.78;6157129;23;20018;-79
2023/07/21 01:11:13;;;;;;;2.45;2.35;;;;;;;14.94;83.95;101282.69;6156639;23;20499;-80
2023/07/21 01:13:40;;;;;;;2.60;2.40;;;;;;;14.88;84.09;101279.88;6155911;23;20022;-78
2023/07/21 01:16:09;;;;;;;7.03;2.38;;;;;;;14.87;83.52;101277.66;6156551;23;20018;-78
2023/07/21 01:18:36;;;;;;;2.45;2.35;;;;;;;14.80;84.15;101272.63;6158410;23;20018;-78
2023/07/21 01:21:08;;;;;;;2.80;2.22;;;;;;;14.75;84.31;101273.28;6158303;23;20018;-79
2023/07/21 01:23:41;;;;;;;2.55;2.42;;;;;;;14.71;84.88;101270.78;6158113;23;20426;-79
2023/07/21 01:26:11;;;;;;;3.42;2.60;;;;;;;14.65;84.67;101267.22;6159878;23;20041;-79
2023/07/21 01:28:40;;;;;;;4.55;2.45;;;;;;;14.66;84.88;101263.34;6175864;23;20013;-79
2023/07/21 01:31:08;;;;;;;2.70;2.50;;;;;;;14.63;85.02;101270.34;6162554;23;20028;-79
2023/07/21 01:33:37;;;;;;;2.70;2.50;;;;;;;14.62;85.08;101268.13;6189160;23;20093;-79
2023/07/21 01:36:06;;;;;;;3.78;2.60;;;;;;;14.61;85.08;101263.97;6189059;23;20025;-79
2023/07/21 01:38:34;;;;;;;4.18;2.33;;;;;;;14.57;85.04;101260.72;6189512;23;20090;-79
2023/07/21 01:41:01;;;;;;;5.20;2.45;;;;;;;14.56;84.88;101251.19;6189027;23;20022;-78
2023/07/21 01:43:30;;;;;;;2.95;2.40;;;;;;;14.54;84.66;101251.63;6162226;23;20017;-78
2023/07/21 01:45:56;;;;;;;2.80;2.60;;;;;;;14.53;85.33;101246.72;6162798;23;20415;-78
2023/07/21 01:48:24;;;;;;;2.95;2.83;;;;;;;14.49;85.08;101241.53;6162788;23;20026;-78
2023/07/21 01:50:53;;;;;;;3.15;2.92;;;;;;;14.43;85.64;101245.28;6163074;23;20080;-78
2023/07/21 01:53:22;;;;;;;3.75;2.85;;;;;;;14.37;85.02;101241.75;6162427;23;20388;-78
2023/07/21 01:56:24;;;;;;;2.92;2.67;;;;;;;14.36;84.96;101238.31;6162965;23;20021;-78
2023/07/21 01:58:52;;;;;;;4.65;2.60;;;;;;;14.33;85.42;101236.53;6162668;23;20080;-78
2023/07/21 02:01:20;;;;;;;2.92;2.65;;;;;;;14.29;85.78;101233.28;6162341;23;20077;-79
2023/07/21 02:03:49;;;;;;;5.68;2.60;;;;;;;14.23;85.95;101233.16;6189692;23;20473;-78
2023/07/21 02:06:17;;;;;;;2.58;2.38;;;;;;;14.20;85.98;101233.31;6189585;23;20397;-79
2023/07/21 02:08:43;;;;;;;2.95;2.67;;;;;;;14.16;86.31;101232.72;6162936;23;20080;-79
2023/07/21 02:11:11;;;;;;;2.40;2.30;;;;;;;14.13;86.44;101218.31;6189574;23;20189;-79
2023/07/21 02:14:01;;;;;;;2.70;2.50;;;;;;;14.11;86.08;101231.41;6162394;23;20021;-79
2023/07/21 02:16:29;;;;;;;2.80;2.60;;;;;;;14.08;86.03;101232.31;6162458;23;20097;-78
2023/07/21 02:18:56;;;;;;;2.75;2.60;;;;;;;14.02;86.04;101234.84;6162717;23;20440;-78
2023/07/21 02:21:23;;;;;;;2.60;2.50;;;;;;;13.96;86.21;101233.25;6162324;23;20052;-79
2023/07/21 02:23:50;;;;;;;2.28;2.17;;;;;;;13.92;86.01;101219.28;6162947;23;20018;-79
2023/07/21 02:26:16;;;;;;;3.28;2.45;;;;;;;13.89;85.94;101226.28;6161745;23;20029;-78
2023/07/21 02:28:43;;;;;;;2.90;2.60;;;;;;;13.85;86.23;101224.94;6157583;23;20026;-80
2023/07/21 02:31:10;;;;;;;2.60;2.40;;;;;;;13.79;86.49;101219.47;6133003;23;20097;-78
2023/07/21 02:33:37;;;;;;;4.15;2.55;;;;;;;13.73;86.62;101215.16;6158564;23;20022;-78
2023/07/21 02:36:05;;;;;;;3.72;2.78;;;;;;;13.66;86.65;101219.63;6157477;23;20022;-78
2023/07/21 02:38:32;;;;;;;3.30;2.40;;;;;;;13.60;86.71;101221.41;6157519;23;20022;-78
2023/07/21 02:41:05;;;;;;;4.28;2.58;;;;;;;13.52;87.35;101217.59;6157404;23;20369;-78
2023/07/21 02:43:35;;;;;;;3.33;2.53;;;;;;;13.50;87.28;101209.25;6157721;23;20018;-78
2023/07/21 02:46:01;;;;;;;2.80;2.60;;;;;;;13.50;87.75;101217.28;6159782;23;20049;-78
2023/07/21 02:48:29;;;;;;;2.80;2.60;;;;;;;13.45;87.61;101211.78;6159408;23;20463;-78
2023/07/21 02:50:56;;;;;;;2.70;2.50;;;;;;;13.45;87.34;101215.22;6157598;23;20464;-78
2023/07/21 02:53:23;;;;;;;2.67;2.53;;;;;;;13.43;86.81;101217.59;6157522;23;20026;-79
2023/07/21 02:55:57;;;;;;;3.10;2.55;;;;;;;13.40;86.81;101213.13;6156758;23;20018;-77
2023/07/21 02:58:26;;;;;;;2.60;2.40;;;;;;;13.32;87.65;101215.34;6157512;23;20018;-78
2023/07/21 03:00:54;;;;;;;2.75;2.55;;;;;;;13.25;87.30;101212.97;6157536;23;20026;-79
2023/07/21 03:03:26;;;;;;;2.70;2.50;;;;;;;13.22;87.59;101219.22;6157612;23;20024;-78
2023/07/21 03:06:02;;;;;;;2.60;2.33;;;;;;;13.18;87.88;101218.66;6157338;23;20010;-79
2023/07/21 03:08:30;;;;;;;2.53;2.33;;;;;;;13.12;87.99;101216.97;6157301;23;20104;-79
2023/07/21 03:11:03;;;;;;;2.50;2.40;;;;;;;13.10;88.07;101214.75;6158874;23;20109;-79
2023/07/21 03:13:32;;;;;;;2.58;2.47;;;;;;;13.10;87.38;101214.75;6133776;23;20401;-79
2023/07/21 03:16:00;;;;;;;3.30;2.55;;;;;;;13.11;87.51;101220.84;6157482;23;20029;-78
2023/07/21 03:18:30;;;;;;;2.83;2.33;;;;;;;13.12;87.60;101214.31;6157465;23;20024;-79
2023/07/21 03:21:10;;;;;;;2.83;2.63;;;;;;;13.11;88.06;101221.56;6157367;23;20030;-79
2023/07/21 03:23:37;;;;;;;3.08;2.50;;;;;;;13.09;87.71;101209.84;6157095;23;20097;-79
2023/07/21 03:26:04;;;;;;;2.60;2.50;;;;;;;13.08;87.50;101201.09;6157242;23;20524;-79
2023/07/21 03:28:38;;;;;;;2.65;2.47;;;;;;;13.06;87.64;101200.03;6157457;23;20026;-79
2023/07/21 03:31:05;;;;;;;3.20;2.90;;;;;;;13.03;88.23;101196.31;6157350;23;20033;-79
2023/07/21 03:33:39;;;;;;;2.65;2.55;;;;;;;13.00;87.81;101211.31;6157136;23;20054;-79
2023/07/21 03:36:12;;;;;;;2.75;2.50;;;;;;;12.98;88.06;101205.69;6157042;23;20106;-79
2023/07/21 03:38:39;;;;;;;2.78;2.58;;;;;;;12.95;87.92;101209.22;6132466;23;20025;-78
2023/07/21 03:41:09;;;;;;;2.67;2.50;;;;;;;12.92;88.39;101212.03;6157393;23;20093;-79
2023/07/21 03:43:39;;;;;;;2.33;2.22;;;;;;;12.86;88.49;101208.47;6156544;23;20199;-79
2023/07/21 03:46:07;;;;;;;2.70;2.45;;;;;;;12.86;88.78;101213.81;6157060;23;20105;-79
2023/07/21 03:48:48;;;;;;;2.53;2.42;;;;;;;12.85;88.48;101213.06;6157156;23;20021;-79
2023/07/21 03:51:14;;;;;;;4.82;2.83;;;;;;;12.82;88.87;101205.94;6158643;23;20026;-79
2023/07/21 03:53:44;;;;;;;3.72;2.47;;;;;;;12.79;89.29;101204.19;6156304;23;20045;-79
2023/07/21 03:56:11;;;;;;;2.70;2.60;;;;;;;12.82;88.40;101205.94;6156928;23;20329;-79
2023/07/21 03:58:38;;;;;;;2.53;2.40;;;;;;;12.85;88.43;101204.31;6157256;23;20019;-79
2023/07/21 04:01:05;;;;;;;2.40;2.30;;;;;;;12.83;89.14;101202.09;6132515;23;20060;-79
2023/07/21 04:03:31;;;;;;;2.90;2.70;;;;;;;12.85;89.10;101198.97;6132738;23;20345;-79
2023/07/21 04:06:04;;;;;;;2.70;2.40;;;;;;;12.88;88.78;101190.81;6157122;23;20515;-79
2023/07/21 04:08:30;;;;;;;2.88;2.35;;;;;;;12.87;88.42;101191.25;6156816;23;20064;-79
2023/07/21 04:10:57;;;;;;;2.40;2.30;;;;;;;12.85;88.67;101190.94;6156912;23;20410;-78
2023/07/21 04:13:24;;;;;;;2.67;2.47;;;;;;;12.81;88.92;101180.41;6158750;23;20089;-79
2023/07/21 04:15:51;;;;;;;2.53;2.42;;;;;;;12.81;89.07;101187.69;6159262;23;20483;-79
2023/07/21 04:18:17;;;;;;;2.97;2.78;;;;;;;12.80;89.52;101186.94;6158767;23;20044;-78
2023/07/21 04:20:45;;;;;;;3.38;3.10;;;;;;;12.80;89.21;101183.53;6157321;23;20026;-78
2023/07/21 04:23:12;;;;;;;2.95;2.75;;;;;;;12.79;89.60;101182.81;6156188;23;20022;-79
2023/07/21 04:25:39;;;;;;;2.95;2.72;;;;;;;12.79;89.48;101182.06;6157026;23;20024;-78
2023/07/21 04:28:06;;;;;;;3.00;2.80;;;;;;;12.81;89.54;101179.66;6132227;23;20026;-79
2023/07/21 04:30:35;;;;;;;4.70;2.78;;;;;;;12.80;89.38;101183.53;6156636;23;20731;-80
2023/07/21 04:33:03;;;;;;;3.20;3.00;;;;;;;12.83;89.36;101182.63;6156781;23;20105;-80
2023/07/21 04:35:31;;;;;;;4.00;3.05;;;;;;;12.85;89.31;101175.66;6156869;23;20105;-78
2023/07/21 04:38:01;;;;;;;3.03;2.83;;;;;;;12.86;89.29;101176.41;6155459;23;20018;-78
2023/07/21 04:40:33;;;;;;;3.30;3.05;;;;;;;12.89;89.48;101175.53;6156978;23;20465;-79
2023/07/21 04:43:00;;;;;;;3.15;2.85;;;;;;;12.89;89.59;101178.19;6157044;23;20014;-78
2023/07/21 04:45:27;;;;;;;3.17;2.88;;;;;;;12.89;89.35;101188.88;6156619;23;20081;-79
2023/07/21 04:48:01;;;;;;;3.40;3.10;;;;;;;12.92;89.70;101182.66;6156630;23;20025;-78
2023/07/21 04:50:31;;;;;;;3.80;3.00;;;;;;;13.10;89.41;101179.25;6156603;23;20022;-78
2023/07/21 04:52:58;;;;;;;3.15;2.95;;;;;;;13.30;88.53;101182.22;6155866;23;20026;-78
2023/07/21 04:55:26;;;;;;;3.50;3.30;;;;;;;13.27;88.14;101183.13;6156579;23;20453;-78
2023/07/21 04:57:54;;;;;;;3.28;3.08;;;;;;;13.30;88.74;101185.66;6158169;23;20022;-79
2023/07/21 05:00:21;;;;;;;4.13;3.30;;;;;;;13.70;87.83;101176.66;6158194;23;20026;-79
2023/07/21 05:02:49;;;;;;;3.53;3.22;;;;;;;14.38;85.85;101182.38;6158332;23;20116;-79
2023/07/21 05:05:16;;;;;;;3.40;3.20;;;;;;;15.21;82.12;101177.91;6159906;23;20018;-79
2023/07/21 05:07:49;;;;;;;3.30;3.10;;;;;;;16.14;78.14;101173.06;6158579;23;20014;-79
2023/07/21 05:10:16;;;;;;;4.32;2.95;;;;;;;16.76;74.60;101177.31;6157955;23;20022;-79
2023/07/21 05:12:43;;;;;;;3.50;3.00;;;;;;;17.17;73.22;101170.69;6158520;23;20073;-79
2023/07/21 05:15:35;;;;;;;3.05;2.85;;;;;;;17.99;69.85;101179.19;6159828;23;20024;-79
2023/07/21 05:18:20;;;;;;;3.17;2.85;;;;;;;18.06;68.43;101184.13;6159420;23;20026;-79
2023/07/21 05:21:10;;;;;;;3.60;3.30;;;;;;;17.77;68.82;101176.34;6157508;23;20101;-79
2023/07/21 05:23:44;;;;;;;3.25;3.05;;;;;;;17.33;71.02;101180.84;6160394;23;20050;-78
2023/07/21 05:26:14;;;;;;;3.38;3.03;;;;;;;17.40;71.61;101179.69;6157876;23;20360;-78
2023/07/21 05:28:41;;;;;;;3.40;3.00;;;;;;;17.48;70.86;101183.44;6177264;23;20017;-79
2023/07/21 05:31:11;;;;;;;3.28;3.08;;;;;;;17.77;70.12;101179.03;6163066;23;20147;-79
2023/07/21 05:33:53;;;;;;;3.13;2.92;;;;;;;17.91;69.88;101191.63;6163360;23;20057;-79
2023/07/21 05:36:19;;;;;;;3.20;3.00;;;;;;;17.95;69.86;101186.75;6162229;23;20018;-78
2023/07/21 05:38:46;;;;;;;3.03;2.83;;;;;;;17.73;70.93;101176.56;6163315;23;20025;-79
2023/07/21 05:41:16;;;;;;;3.10;2.78;;;;;;;17.26;72.61;101181.25;6162746;23;20026;-79
2023/07/21 05:43:43;;;;;;;2.80;2.60;;;;;;;17.05;74.05;101181.78;6162534;23;20057;-78
2023/07/21 05:46:10;;;;;;;2.53;2.40;;;;;;;16.95;74.26;101179.25;6163096;23;20013;-78
2023/07/21 05:48:44;;;;;;;3.58;2.83;;;;;;;16.93;74.22;101175.53;6162983;23;20081;-78
2023/07/21 05:51:14;;;;;;;2.97;2.78;;;;;;;17.12;74.63;101181.38;6162024;23;20044;-77
2023/07/21 05:53:44;;;;;;;2.65;2.40;;;;;;;17.17;74.36;101180.69;6162702;23;20551;-78
2023/07/21 05:56:15;;;;;;;3.50;2.70;;;;;;;17.11;74.13;101179.91;6162737;23;20032;-78
2023/07/21 05:59:04;;;;;;;3.10;2.78;;;;;;;17.10;75.98;101170.34;6188672;23;20021;-78
2023/07/21 06:01:31;;;;;;;2.90;2.70;;;;;;;17.14;75.32;101168.94;6163728;23;20096;-78
2023/07/21 06:03:58;;;;;;;2.67;2.47;;;;;;;17.41;73.22;101170.41;6138529;23;20443;-83
2023/07/21 06:06:24;;;;;;;2.28;2.17;;;;;;;17.95;72.28;101176.72;6163417;23;20101;-80
2023/07/21 06:09:15;;;;;;;2.33;2.15;;;;;;;18.02;71.76;101172.81;6163701;23;20025;-79
2023/07/21 06:11:55;;;;;;;2.60;2.40;;;;;;;18.13;70.86;101177.56;6163032;23;20021;-76
2023/07/21 06:14:35;;;;;;;3.05;2.50;;;;;;;17.95;71.13;101175.97;6162501;23;20022;-79
2023/07/21 06:17:14;;;;;;;2.20;2.10;;;;;;;18.00;71.37;101176.00;6162788;23;20021;-78
2023/07/21 06:19:41;;;;;;;2.00;1.90;;;;;;;18.19;69.45;101170.97;6162085;23;20388;-78
2023/07/21 06:22:08;;;;;;;2.05;1.95;;;;;;;18.52;68.13;101166.97;6163515;23;20022;-78
2023/07/21 06:24:35;;;;;;;2.20;2.10;;;;;;;18.61;67.93;101162.13;6163227;23;20440;-78
2023/07/21 06:27:02;;;;;;;2.00;1.90;;;;;;;18.65;67.61;101170.00;6163815;23;20057;-78
2023/07/21 06:29:29;;;;;;;2.10;2.00;;;;;;;18.90;65.52;101168.34;6136456;23;20049;-76
2023/07/21 06:31:57;;;;;;;2.28;1.92;;;;;;;19.07;64.89;101168.38;6133900;23;20105;-77
2023/07/21 06:34:35;;;;;;;2.20;2.05;;;;;;;19.15;65.03;101161.28;6133068;23;20101;-73
2023/07/21 06:37:09;;;;;;;4.30;2.22;;;;;;;19.32;64.92;101160.06;6134373;23;20018;-75
2023/07/21 06:39:50;;;;;;;4.93;2.17;;;;;;;19.60;64.81;101164.75;6134180;23;20089;-74
2023/07/21 06:42:38;;;;;;;2.63;2.13;;;;;;;19.72;64.02;101154.69;6113841;23;20602;-74
2023/07/21 06:45:29;;;;;;;2.67;2.47;;;;;;;19.66;65.00;101157.38;6113653;23;20101;-74
2023/07/21 06:48:08;;;;;;;3.45;3.20;;;;;;;19.62;64.82;101156.91;6133513;23;20018;-74
2023/07/21 06:50:54;;;;;;;2.53;2.42;;;;;;;19.78;63.84;101166.97;6133994;23;20356;-74
2023/07/21 06:53:22;;;;;;;2.60;2.50;;;;;;;19.80;64.27;101155.66;6109184;23;20499;-74
2023/07/21 06:55:49;;;;;;;2.30;2.20;;;;;;;19.72;63.08;101160.09;6160655;23;20018;-75
2023/07/21 06:58:16;;;;;;;2.50;2.40;;;;;;;19.55;64.63;101160.13;6109628;23;20022;-75
2023/07/21 07:00:43;;;;;;;3.58;2.83;;;;;;;19.55;64.16;101165.53;6133381;23;20109;-75
2023/07/21 07:03:09;;;;;;;3.65;3.35;;;;;;;19.56;63.95;101156.94;6133122;23;20026;-75
2023/07/21 07:05:36;;;;;;;3.47;3.20;;;;;;;19.49;64.37;101165.50;6159810;23;20014;-74
2023/07/21 07:08:04;;;;;;;3.35;3.10;;;;;;;19.44;65.13;101155.41;6133794;23;20097;-74
2023/07/21 07:10:30;;;;;;;2.72;2.53;;;;;;;19.51;65.07;101156.94;6159709;23;20527;-74
2023/07/21 07:12:57;;;;;;;2.88;2.67;;;;;;;19.45;64.39;101161.56;6160282;23;20097;-74
2023/07/21 07:15:23;;;;;;;2.92;2.70;;;;;;;19.56;64.15;101156.94;6160030;23;20061;-74
2023/07/21 07:17:50;;;;;;;2.30;2.10;;;;;;;19.59;64.62;101157.91;6133140;23;20014;-74
2023/07/21 07:20:17;;;;;;;2.10;1.90;;;;;;;19.46;63.35;101147.56;6159645;23;20377;-74
2023/07/21 07:22:44;;;;;;;2.25;2.05;;;;;;;19.46;64.11;101157.63;6160085;23;20018;-74
2023/07/21 07:25:11;;;;;;;2.35;2.25;;;;;;;19.44;63.92;101160.09;6133846;23;20081;-74
2023/07/21 07:27:38;;;;;;;2.67;2.40;;;;;;;19.48;64.43;101165.97;6138065;23;20065;-74
2023/07/21 07:30:05;;;;;;;2.47;2.28;;;;;;;19.40;64.26;101165.72;6191212;23;20013;-73
2023/07/21 07:32:31;;;;;;;2.20;2.05;;;;;;;19.32;64.88;101165.47;6189465;23;20025;-72
2023/07/21 07:34:58;;;;;;;3.42;2.42;;;;;;;19.37;65.18;101166.69;6189991;23;20017;-74
2023/07/21 07:37:27;;;;;;;3.80;3.50;;;;;;;19.31;64.76;101165.97;6189753;23;20100;-74
2023/07/21 07:39:54;;;;;;;3.65;3.10;;;;;;;19.43;64.44;101166.72;6189888;23;20018;-74
2023/07/21 07:42:22;;;;;;;2.70;2.60;;;;;;;19.49;65.07;101162.06;6189739;23;20029;-74
2023/07/21 07:44:50;;;;;;;3.38;3.17;;;;;;;19.48;64.70;101166.72;6190182;23;20096;-75
2023/07/21 07:47:17;;;;;;;2.60;2.50;;;;;;;19.48;65.74;101165.97;6190533;23;20024;-75
2023/07/21 07:49:43;;;;;;;4.68;2.60;;;;;;;19.59;65.25;101161.31;6164145;23;20018;-75
2023/07/21 07:52:10;;;;;;;2.75;2.65;;;;;;;19.72;65.93;101168.19;6163818;23;20419;-75
2023/07/21 07:54:37;;;;;;;2.47;2.28;;;;;;;19.76;65.26;101161.31;6189602;23;20150;-74
2023/07/21 07:57:03;;;;;;;2.88;2.15;;;;;;;19.87;63.39;101161.31;6190723;23;20072;-73
2023/07/21 07:59:30;;;;;;;1.83;1.65;;;;;;;19.81;62.16;101170.66;6189441;23;20455;-74
2023/07/21 08:01:58;;;;;;;1.17;1.17;;;;;;;19.75;60.36;101159.09;6190459;23;20096;-74
2023/07/21 08:04:25;;;;;;;3.10;1.20;;;;;;;19.76;60.53;101165.97;6163257;23;20045;-74
2023/07/21 08:06:52;;;;;;;1.88;1.40;;;;;;;19.89;60.21;101160.81;6190427;23;20423;-74
2023/07/21 08:09:18;;;;;;;2.20;1.20;;;;;;;19.95;58.72;101159.59;6189598;23;20017;-77
2023/07/21 08:11:45;;;;;;;3.00;1.30;;;;;;;19.98;58.31;101157.84;6163659;23;20049;-77
2023/07/21 08:14:12;;;;;;;1.27;1.23;;;;;;;20.06;59.69;101160.75;6190022;23;20021;-73
2023/07/21 08:16:38;;;;;;;1.10;1.10;;;;;;;20.10;59.01;101159.28;6189897;23;20393;-73
2023/07/21 08:19:05;;;;;;;2.45;1.30;;;;;;;20.08;57.67;101161.75;6189768;23;20456;-73
2023/07/21 08:21:32;;;;;;;1.55;1.25;;;;;;;20.27;58.43;101170.78;6137866;23;20340;-73
2023/07/21 08:23:59;;;;;;;1.48;1.38;;;;;;;20.29;56.24;101162.94;6163407;23;20096;-73
2023/07/21 08:26:25;;;;;;;1.15;1.08;;;;;;;20.29;57.22;101160.22;6189519;23;20017;-74
2023/07/21 08:28:52;;;;;;;1.40;1.30;;;;;;;20.53;57.39;101165.06;6188957;23;20025;-73
2023/07/21 08:31:20;;;;;;;1.98;1.25;;;;;;;20.77;56.15;101178.00;6190274;23;20084;-72
2023/07/21 08:33:47;;;;;;;2.83;1.60;;;;;;;20.83;55.29;101173.28;6190974;23;20392;-74
2023/07/21 08:36:14;;;;;;;1.25;1.25;;;;;;;20.74;55.31;101172.84;6190973;23;20014;-72
2023/07/21 08:38:40;;;;;;;1.30;1.20;;;;;;;20.83;52.34;101170.56;6190430;23;20072;-73
2023/07/21 08:41:08;;;;;;;1.20;1.10;;;;;;;21.07;50.88;101167.25;6190913;23;20061;-74
2023/07/21 08:43:35;;;;;;;1.10;1.10;;;;;;;21.18;50.23;101169.88;6190120;23;20379;-74
2023/07/21 08:46:07;;;;;;;1.73;1.20;;;;;;;21.25;49.60;101166.63;6164381;23;20028;-74
2023/07/21 08:48:34;;;;;;;1.38;1.27;;;;;;;21.17;50.71;101165.69;6190272;23;20325;-74
2023/07/21 08:51:01;;;;;;;3.03;1.10;;;;;;;21.40;50.98;101163.56;6190685;23;20022;-75
2023/07/21 08:53:28;;;;;;;2.35;1.10;;;;;;;21.77;49.53;101152.16;6190248;23;20056;-74
2023/07/21 08:55:56;;;;;;;1.25;1.15;;;;;;;21.92;50.44;101162.63;6190749;23;20446;-74
2023/07/21 08:58:24;;;;;;;1.83;1.38;;;;;;;22.18;49.31;101162.84;6189937;23;20520;-74
2023/07/21 09:00:54;;;;;;;1.60;1.35;;;;;;;22.32;48.75;101154.81;6165115;23;20053;-76
2023/07/21 09:03:23;;;;;;;1.65;1.55;;;;;;;22.55;46.70;101151.31;6190518;23;20018;-74
2023/07/21 09:05:51;;;;;;;1.70;1.60;;;;;;;22.55;47.51;101154.03;6190956;23;20176;-74
2023/07/21 09:08:22;;;;;;;3.35;1.40;;;;;;;22.63;48.02;101163.03;6190782;23;20436;-73
2023/07/21 09:10:49;;;;;;;3.22;1.42;;;;;;;22.48;48.20;101157.31;6191130;23;20470;-74
2023/07/21 09:13:19;;;;;;;3.70;1.80;;;;;;;22.71;48.34;101157.75;6163553;23;20021;-74
2023/07/21 09:15:54;;;;;;;2.10;1.48;;;;;;;22.94;48.31;101161.66;6190498;23;20444;-74
2023/07/21 09:18:28;;;;;;;2.35;1.70;;;;;;;23.21;47.88;101153.59;6190131;23;20459;-73
2023/07/21 09:20:56;;;;;;;2.78;1.52;;;;;;;23.40;46.80;101146.13;6190624;23;20448;-73
2023/07/21 09:23:26;;;;;;;4.68;1.40;;;;;;;23.42;46.09;101151.06;6190187;23;20100;-74
2023/07/21 09:25:55;;;;;;;1.70;1.60;;;;;;;23.51;46.47;101145.97;6190255;23;20017;-73
2023/07/21 09:28:40;;;;;;;1.52;1.42;;;;;;;23.68;46.57;101151.09;6189648;23;20014;-75
2023/07/21 09:31:08;;;;;;;1.23;1.13;;;;;;;23.81;43.45;101140.25;6190353;23;20462;-74
2023/07/21 09:33:44;;;;;;;3.20;2.15;;;;;;;24.19;42.37;101153.63;6189756;23;20048;-75
2023/07/21 09:36:15;;;;;;;2.78;1.70;;;;;;;24.33;44.67;101140.78;6190314;23;20108;-76
2023/07/21 09:38:45;;;;;;;2.83;1.67;;;;;;;23.98;45.01;101145.38;6164442;23;20017;-76
2023/07/21 09:41:13;;;;;;;1.30;1.27;;;;;;;23.81;42.75;101153.13;6190218;23;20398;-74
2023/07/21 09:43:41;;;;;;;1.38;1.33;;;;;;;23.76;44.08;101146.53;6189873;23;20021;-74
2023/07/21 09:46:09;;;;;;;2.55;1.95;;;;;;;23.71;43.64;101152.06;6190661;23;20018;-76
2023/07/21 09:48:38;;;;;;;2.00;1.40;;;;;;;23.75;43.73;101147.03;6189990;23;20021;-73
2023/07/21 09:51:07;;;;;;;4.30;1.45;;;;;;;23.82;43.78;101141.00;6190228;23;20084;-75
2023/07/21 09:53:43;;;;;;;1.48;1.38;;;;;;;24.11;42.25;101139.19;6163595;23;20061;-74
2023/07/21 09:56:11;;;;;;;1.15;1.00;;;;;;;23.99;42.32;101135.97;6189455;23;20519;-74
2023/07/21 09:59:00;;;;;;;1.23;0.88;;;;;;;23.73;42.43;101133.25;6189598;23;20013;-75
2023/07/21 10:01:28;;;;;;;1.20;1.10;;;;;;;23.64;40.51;101141.78;6189931;23;20029;-74
2023/07/21 10:03:58;;;;;;;0.82;0.82;;;;;;;23.71;42.51;101131.03;6190208;23;20014;-75
2023/07/21 10:06:25;;;;;;;1.55;1.27;;;;;;;23.93;40.39;101127.94;6190137;23;20013;-75
2023/07/21 10:08:55;;;;;;;3.70;1.17;;;;;;;24.25;40.82;101135.22;6190256;23;20020;-74
2023/07/21 10:11:23;;;;;;;0.93;0.90;;;;;;;24.18;39.98;101122.97;6189158;23;20113;-75
2023/07/21 10:13:50;;;;;;;1.40;1.30;;;;;;;24.05;40.86;101133.84;6189875;23;20021;-74
2023/07/21 10:16:20;;;;;;;1.13;1.02;;;;;;;24.05;40.25;101130.41;6190007;23;20017;-74
2023/07/21 10:19:14;;;;;;;1.10;0.90;;;;;;;24.23;41.12;101124.13;6190193;23;20052;-76
2023/07/21 10:21:52;;;;;;;1.20;1.10;;;;;;;24.15;41.28;101134.91;6184589;23;20081;-76
2023/07/21 10:24:31;;;;;;;1.17;1.17;;;;;;;24.31;40.56;101121.53;6189719;23;20017;-75
2023/07/21 10:27:03;;;;;;;2.75;1.08;;;;;;;24.21;39.46;101132.81;6190010;23;20058;-76
2023/07/21 10:29:30;;;;;;;1.38;1.30;;;;;;;23.93;39.86;101130.66;6158011;23;20070;-75
2023/07/21 10:31:58;;;;;;;1.10;1.00;;;;;;;23.97;40.37;101124.16;6160394;23;20081;-76
2023/07/21 10:34:30;;;;;;;3.05;1.10;;;;;;;23.66;39.00;101129.16;6159896;23;20052;-75
2023/07/21 10:36:58;;;;;;;1.02;1.02;;;;;;;23.79;39.11;101126.44;6160547;23;20018;-75
2023/07/21 10:39:27;;;;;;;1.13;1.02;;;;;;;23.50;39.58;101122.75;6159108;23;20014;-76
2023/07/21 10:42:05;;;;;;;1.48;1.10;;;;;;;23.03;39.31;101130.69;6160663;23;20127;-75
2023/07/21 10:44:36;;;;;;;0.80;0.80;;;;;;;22.95;39.27;101130.53;6159919;23;20018;-80
2023/07/21 10:47:05;;;;;;;2.30;1.10;;;;;;;23.18;38.40;101124.78;6158690;23;20018;-76
2023/07/21 10:49:33;;;;;;;0.95;0.95;;;;;;;23.79;40.48;101128.44;6159595;23;20392;-74
2023/07/21 10:52:00;;;;;;;1.15;1.15;;;;;;;24.69;37.99;101125.38;6133574;23;20464;-73
2023/07/21 10:54:26;;;;;;;1.05;1.05;;;;;;;25.13;37.99;101117.47;6157939;23;20518;-73
2023/07/21 10:56:53;;;;;;;7.43;1.27;;;;;;;25.47;37.61;101118.09;6160193;23;20018;-74
2023/07/21 10:59:20;;;;;;;1.35;1.30;;;;;;;25.83;36.88;101114.69;6159700;23;20516;-74
2023/07/21 11:01:51;;;;;;;1.48;1.20;;;;;;;26.06;35.78;101103.88;6160018;23;20025;-73
2023/07/21 11:04:20;;;;;;;1.20;1.10;;;;;;;26.22;36.64;101110.84;6159685;23;20460;-73
2023/07/21 11:06:50;;;;;;;2.17;1.17;;;;;;;26.56;36.16;101111.34;6158020;23;20019;-74
2023/07/21 11:09:18;;;;;;;1.20;1.20;;;;;;;26.47;37.31;101111.84;6159493;23;20112;-73
2023/07/21 11:11:46;;;;;;;1.20;1.10;;;;;;;26.08;35.52;101123.16;6158207;23;20025;-73
2023/07/21 11:14:16;;;;;;;0.95;0.95;;;;;;;25.55;35.76;101118.13;6160240;23;20014;-74
2023/07/21 11:17:03;;;;;;;2.67;1.33;;;;;;;24.94;37.92;101117.63;6159604;23;20026;-74
2023/07/21 11:19:32;;;;;;;2.05;1.20;;;;;;;24.44;38.61;101110.59;6158212;23;20053;-74
2023/07/21 11:22:00;;;;;;;2.00;1.40;;;;;;;24.10;39.56;101124.13;6160043;23;20029;-74
2023/07/21 11:24:31;;;;;;;1.27;1.23;;;;;;;23.92;39.89;101125.72;6159104;23;20018;-73
2023/07/21 11:27:05;;;;;;;;;;;;;;;23.74;40.13;101121.13;6160575;23;20021;-74
2023/07/21 11:29:42;;;;;;;3.45;1.88;;;;;;;23.39;40.71;101125.66;6164158;23;19921;-74
2023/07/21 11:32:19;;;;;;;2.30;1.30;;;;;;;23.25;40.25;101126.88;6189735;23;20474;-74
2023/07/21 11:34:46;;;;;;;1.33;1.30;;;;;;;22.97;40.48;101124.59;6189812;23;20018;-74
2023/07/21 11:37:14;;;;;;;2.28;1.60;;;;;;;22.79;41.58;101134.22;6189214;23;20014;-73